Sylvester, Texas
Current Conditions -  °F | °C
As of 3:35 PM on Thursday 23 Oct 2014 (Local Time) from KSWW Reporting Station
Clear Clear  
Wind Chill: 76°   Ceiling: Unl
Heat Index: 78°   Visibility: 10mi
Dew Point: 61°   Wind: 7mph
Humidity: 58%   Direction: 210°SSW
Pressure: 30.12"   Gusts: NA
Location:  32.72°N, 100.26°W
Report Text: KSWW 232035Z AUTO 21006KT 10SM CLR 25/16 A3012 RMK AO2 T02470159
Loading
Personal Weather Stations






























Interactive Weather Map
Tropical Storm Tracking
New forecast layout! Learn more

10-Day Weather Forecast

Advertisements
Track Severe Weather on mobile